Time;durP1;ratioP1;P1;durP2;ratioP2;P2;SDS_P1;SDS_P2;PMS_P1;PMS_P2;Temp;Humidity;BMP_temperature;BMP_pressure;BME280_temperature;BME280_humidity;BME280_pressure;Samples;Min_cycle;Max_cycle;Signal;HPM_P1;HPM_P2
2023/04/26 00:00:42;;;;;;;;;12.00;11.00;;;;;13.26;54.62;101220.81;4954803;28;45448;-60
2023/04/26 00:03:07;;;;;;;;;14.40;11.60;;;;;13.25;54.38;101212.75;4970844;28;45392;-60
2023/04/26 00:05:33;;;;;;;;;11.50;9.75;;;;;13.16;53.32;101228.69;4971499;28;45654;-60
2023/04/26 00:07:59;;;;;;;;;12.40;10.60;;;;;13.10;53.45;101233.19;5003776;28;46336;-60
2023/04/26 00:10:25;;;;;;;;;13.25;11.75;;;;;13.16;54.56;101228.69;5003786;28;45454;-60
2023/04/26 00:12:51;;;;;;;;;16.50;11.50;;;;;13.14;51.88;101220.63;4972561;28;45415;-59
2023/04/26 00:15:16;;;;;;;;;11.80;11.80;;;;;13.15;54.28;101219.56;4987313;28;45625;-60
2023/04/26 00:17:42;;;;;;;;;12.25;9.50;;;;;13.18;54.77;101217.47;5003777;28;47660;-57
2023/04/26 00:20:10;;;;;;;;;15.50;12.75;;;;;13.19;54.83;101211.75;4970803;28;45514;-63
2023/04/26 00:22:36;;;;;;;;;16.60;13.00;;;;;13.13;54.07;101207.09;4970900;28;45323;-59
2023/04/26 00:25:02;;;;;;;;;11.50;11.50;;;;;12.94;53.94;101175.78;4972499;28;45581;-60
2023/04/26 00:27:27;;;;;;;;;11.25;11.25;;;;;13.09;54.65;101206.69;4971706;28;45544;-60
2023/04/26 00:29:53;;;;;;;;;14.50;12.50;;;;;13.09;54.76;101201.19;4954294;28;45797;-59
2023/04/26 00:32:19;;;;;;;;;13.50;12.00;;;;;13.06;54.37;101195.22;4971429;28;45302;-60
2023/04/26 00:34:44;;;;;;;;;16.00;13.50;;;;;13.05;54.65;101199.91;4986049;28;45424;-59
2023/04/26 00:37:10;;;;;;;;;14.75;14.75;;;;;13.07;54.81;101195.00;4952228;28;46029;-60
2023/04/26 00:39:36;;;;;;;;;16.00;16.00;;;;;13.09;55.18;101201.19;4966694;28;45999;-60
2023/04/26 00:42:01;;;;;;;;;6.00;6.00;;;;;13.10;54.63;101189.09;4951188;28;45428;-60
2023/04/26 00:44:27;;;;;;;;;11.00;11.00;;;;;13.06;55.13;101185.06;4951013;28;45387;-61
2023/04/26 00:46:57;;;;;;;;;14.50;12.50;;;;;13.05;55.25;101194.41;4959588;28;45996;-59
2023/04/26 00:49:23;;;;;;;;;18.80;14.80;;;;;13.06;55.32;101190.56;5040646;28;45582;-60
2023/04/26 00:51:50;;;;;;;;;13.60;12.20;;;;;13.05;54.72;101180.63;5034335;28;45397;-60
2023/04/26 00:54:15;;;;;;;;;13.40;13.40;;;;;13.05;54.99;101191.63;5034879;28;45617;-60
2023/04/26 00:56:41;;;;;;;;;16.25;14.50;;;;;13.01;55.31;101174.69;5035385;28;48535;-60
2023/04/26 00:59:07;;;;;;;;;13.75;12.75;;;;;12.94;54.55;101165.63;5053691;28;45317;-60
2023/04/26 01:01:34;;;;;;;;;9.75;9.75;;;;;12.99;55.06;101175.97;5037768;28;45366;-59
2023/04/26 01:04:00;;;;;;;;;13.40;10.00;;;;;12.73;54.73;101133.69;5055666;28;45252;-61
2023/04/26 01:06:25;;;;;;;;;13.00;11.25;;;;;12.77;54.40;101165.25;5055681;28;45614;-60
2023/04/26 01:08:51;;;;;;;;;13.25;13.25;;;;;12.81;55.33;101157.41;5055336;28;45782;-60
2023/04/26 01:11:16;;;;;;;;;13.50;12.50;;;;;12.75;55.32;101145.31;5057514;28;45398;-60
2023/04/26 01:13:42;;;;;;;;;10.25;10.25;;;;;12.75;54.51;101150.81;5057414;28;45682;-59
2023/04/26 01:16:07;;;;;;;;;11.00;11.00;;;;;12.67;53.30;101165.69;5055490;28;47189;-60
2023/04/26 01:18:33;;;;;;;;;15.75;15.75;;;;;12.58;55.47;101156.81;5039122;28;45860;-59
2023/04/26 01:20:59;;;;;;;;;11.20;11.20;;;;;12.57;54.47;101157.03;5055543;28;45533;-59
2023/04/26 01:23:24;;;;;;;;;12.00;10.25;;;;;12.61;55.07;101156.38;5055792;28;45557;-59
2023/04/26 01:25:50;;;;;;;;;13.25;12.00;;;;;12.59;55.23;101160.41;5055345;28;45761;-59
2023/04/26 01:28:16;;;;;;;;;13.00;10.75;;;;;12.54;53.89;101147.28;5038967;28;45426;-59
2023/04/26 01:30:42;;;;;;;;;10.25;10.00;;;;;12.39;54.48;101149.44;5055646;28;45490;-59
2023/04/26 01:33:07;;;;;;;;;11.25;10.25;;;;;12.33;50.33;101137.38;5055232;28;45611;-61
2023/04/26 01:35:33;;;;;;;;;11.25;10.75;;;;;12.23;52.67;101131.47;5038959;28;47028;-60
2023/04/26 01:37:58;;;;;;;;;15.50;10.50;;;;;12.11;51.51;101139.53;5055246;28;45481;-60
2023/04/26 01:40:24;;;;;;;;;10.50;9.00;;;;;12.12;54.47;101139.28;5056818;28;45450;-60
2023/04/26 01:42:50;;;;;;;;;12.50;10.75;;;;;12.10;54.60;101143.34;5056991;28;45368;-60
2023/04/26 01:45:16;;;;;;;;;10.00;9.50;;;;;11.97;52.17;101130.38;5055009;28;46282;-60
2023/04/26 01:47:41;;;;;;;;;15.20;10.60;;;;;11.98;54.86;101124.69;5055133;28;45460;-60
2023/04/26 01:50:08;;;;;;;;;7.50;7.25;;;;;12.02;54.44;101136.94;5088976;27;45300;-60
2023/04/26 01:52:33;;;;;;;;;8.80;8.60;;;;;12.16;53.66;101142.47;5055429;28;45212;-60
2023/04/26 01:54:59;;;;;;;;;10.25;9.00;;;;;12.15;52.65;101138.03;5055103;28;46406;-59
2023/04/26 01:57:24;;;;;;;;;10.00;9.00;;;;;12.03;51.63;101155.19;4992207;28;46033;-60
2023/04/26 01:59:50;;;;;;;;;10.00;8.00;;;;;11.97;53.76;101149.66;4971974;28;45389;-60
2023/04/26 02:02:18;;;;;;;;;9.75;9.00;;;;;11.94;53.66;101145.41;5004255;28;45345;-59
2023/04/26 02:04:44;;;;;;;;;10.80;9.80;;;;;11.86;52.58;101145.63;4973235;28;47389;-59
2023/04/26 02:07:10;;;;;;;;;9.00;9.00;;;;;11.74;52.32;101139.91;4971842;28;45304;-59
2023/04/26 02:09:35;;;;;;;;;8.00;8.00;;;;;11.86;55.55;101118.13;4973552;28;45167;-59
2023/04/26 02:12:01;;;;;;;;;9.50;9.50;;;;;12.03;55.26;101124.94;4972775;28;45548;-59
2023/04/26 02:14:27;;;;;;;;;11.00;8.60;;;;;12.12;54.58;101127.47;4972993;28;47379;-59
2023/04/26 02:16:52;;;;;;;;;9.25;9.25;;;;;12.18;54.01;101132.13;4973607;28;45363;-58
2023/04/26 02:19:18;;;;;;;;;12.00;12.00;;;;;12.18;54.04;101132.13;4972171;28;45482;-61
2023/04/26 02:21:53;;;;;;;;;11.25;8.75;;;;;11.96;51.93;101128.69;4972132;28;45325;-59
2023/04/26 02:24:20;;;;;;;;;12.60;10.80;;;;;11.94;55.10;101134.41;4973327;28;45727;-59
2023/04/26 02:26:45;;;;;;;;;11.60;9.00;;;;;11.92;53.78;101140.09;4972185;28;45566;-60
2023/04/26 02:29:11;;;;;;;;;7.75;7.00;;;;;11.92;54.80;101136.53;4973489;28;45258;-60
2023/04/26 02:31:36;;;;;;;;;10.25;8.25;;;;;12.05;56.02;101142.06;4955668;28;45592;-60
2023/04/26 02:34:02;;;;;;;;;10.00;10.00;;;;;11.96;53.08;101140.56;4968853;28;46452;-61
2023/04/26 02:36:27;;;;;;;;;14.00;10.00;;;;;11.91;55.44;101140.34;4953614;28;45322;-60
2023/04/26 02:38:53;;;;;;;;;11.00;9.00;;;;;11.77;53.37;101133.97;4953863;28;45357;-60
2023/04/26 02:41:18;;;;;;;;;12.00;9.00;;;;;11.86;55.64;101129.13;4953991;28;45574;-60
2023/04/26 02:43:44;;;;;;;;;12.75;9.25;;;;;11.88;55.39;101130.59;4952038;28;46254;-60
2023/04/26 02:46:10;;;;;;;;;10.25;10.25;;;;;11.85;55.62;101119.19;4952512;28;45271;-60
2023/04/26 02:48:35;;;;;;;;;9.00;9.00;;;;;11.99;55.70;101123.63;4953747;28;45809;-59
2023/04/26 02:51:01;;;;;;;;;14.00;11.75;;;;;11.73;55.46;101096.94;4953839;28;45686;-59
2023/04/26 02:53:26;;;;;;;;;9.25;9.00;;;;;11.91;55.15;101112.84;4953447;28;45479;-59
2023/04/26 02:55:52;;;;;;;;;11.25;8.75;;;;;12.04;55.34;101117.50;4953676;28;45354;-59
2023/04/26 02:58:17;;;;;;;;;10.25;9.00;;;;;12.06;55.81;101113.50;4953864;28;45815;-60
2023/04/26 03:00:47;;;;;;;;;11.25;9.25;;;;;12.01;54.07;101116.00;4941362;28;45390;-60
2023/04/26 03:03:13;;;;;;;;;10.00;8.00;;;;;12.10;55.13;101121.34;4947741;28;47312;-60
2023/04/26 03:05:38;;;;;;;;;10.00;8.00;;;;;12.01;55.60;101121.50;4957972;28;45482;-62
2023/04/26 03:08:04;;;;;;;;;13.25;9.25;;;;;12.15;55.92;101124.25;4928659;28;45370;-59
2023/04/26 03:10:30;;;;;;;;;10.60;9.00;;;;;12.14;54.38;101128.94;4953221;28;45262;-59
2023/04/26 03:12:55;;;;;;;;;9.25;9.25;;;;;12.13;55.40;101104.38;4951830;28;46794;-59
2023/04/26 03:15:21;;;;;;;;;11.50;9.75;;;;;12.21;55.11;101109.66;4953113;28;45328;-60
2023/04/26 03:17:46;;;;;;;;;8.50;5.00;;;;;12.25;55.20;101113.69;4967907;28;45322;-60
2023/04/26 03:20:12;;;;;;;;;11.50;9.00;;;;;12.14;52.89;101111.56;4953605;28;45147;-59
2023/04/26 03:22:38;;;;;;;;;13.20;10.80;;;;;12.10;54.37;101113.06;4952878;28;46202;-59
2023/04/26 03:25:04;;;;;;;;;11.50;10.00;;;;;12.10;54.61;101113.06;4984055;27;45348;-59
2023/04/26 03:27:29;;;;;;;;;13.20;9.20;;;;;12.09;54.93;101108.59;4953290;28;45451;-59
2023/04/26 03:29:55;;;;;;;;;8.75;8.75;;;;;12.05;54.56;101105.44;4952955;28;45396;-59
2023/04/26 03:32:20;;;;;;;;;10.00;9.00;;;;;12.12;54.83;101121.97;4952787;28;46005;-59
2023/04/26 03:34:47;;;;;;;;;10.75;9.00;;;;;12.16;53.57;101123.19;5004576;28;45399;-59
2023/04/26 03:37:13;;;;;;;;;8.80;8.40;;;;;12.04;55.08;101106.50;5055137;28;45839;-59
2023/04/26 03:39:38;;;;;;;;;10.50;10.00;;;;;12.07;54.86;101117.94;5087461;27;45564;-58
2023/04/26 03:42:04;;;;;;;;;8.75;8.75;;;;;12.02;54.02;101114.09;5054157;28;45308;-59
2023/04/26 03:44:29;;;;;;;;;8.75;8.75;;;;;11.82;53.33;101114.09;5055101;28;45707;-60
2023/04/26 03:46:55;;;;;;;;;9.75;9.00;;;;;11.76;52.65;101115.78;5053558;28;45350;-59
2023/04/26 03:49:21;;;;;;;;;10.00;9.00;;;;;11.84;53.25;101110.06;5053776;28;45420;-59
2023/04/26 03:51:46;;;;;;;;;9.25;8.25;;;;;11.71;52.77;101110.94;5052882;28;47112;-59
2023/04/26 03:54:12;;;;;;;;;11.75;10.00;;;;;11.66;55.33;101100.56;5036901;28;45871;-60
2023/04/26 03:56:38;;;;;;;;;11.50;11.50;;;;;11.66;51.82;101110.72;5036810;28;45343;-60
2023/04/26 03:59:04;;;;;;;;;9.60;8.40;;;;;11.55;54.07;101106.69;5054560;28;45614;-60
2023/04/26 04:01:30;;;;;;;;;15.25;10.75;;;;;11.58;55.39;101103.50;5055091;28;45565;-59
2023/04/26 04:03:56;;;;;;;;;15.20;11.00;;;;;11.53;53.92;101101.38;5027055;28;45410;-59
2023/04/26 04:06:21;;;;;;;;;9.25;8.25;;;;;11.59;55.25;101102.44;4951101;28;45330;-60
2023/04/26 04:08:47;;;;;;;;;10.50;10.50;;;;;11.74;54.88;101110.50;4952087;28;45815;-60
2023/04/26 04:11:12;;;;;;;;;14.25;13.00;;;;;11.68;54.27;101108.59;4952622;28;46453;-60
2023/04/26 04:13:38;;;;;;;;;12.00;11.00;;;;;11.68;56.05;101102.25;4983814;28;45387;-60
2023/04/26 04:16:04;;;;;;;;;15.25;10.25;;;;;11.70;53.71;101120.25;4952309;28;45432;-60
2023/04/26 04:18:29;;;;;;;;;15.25;14.00;;;;;11.71;53.72;101118.31;4953557;28;45304;-59
2023/04/26 04:20:55;;;;;;;;;16.25;15.25;;;;;11.60;53.62;101109.66;4952489;28;46377;-59
2023/04/26 04:23:21;;;;;;;;;15.75;11.00;;;;;11.72;55.63;101123.63;4952622;28;45383;-60
2023/04/26 04:25:48;;;;;;;;;15.75;13.00;;;;;11.84;55.59;101106.50;4967557;28;45254;-59
2023/04/26 04:28:13;;;;;;;;;16.00;11.60;;;;;11.91;55.12;101108.16;4952673;28;45373;-59
2023/04/26 04:30:42;;;;;;;;;12.80;8.00;;;;;11.96;55.34;101104.81;4952558;28;46348;-59
2023/04/26 04:33:08;;;;;;;;;10.40;8.20;;;;;12.02;55.24;101103.94;4966727;28;45588;-59
2023/04/26 04:35:33;;;;;;;;;9.25;9.00;;;;;11.93;54.30;101106.06;5019888;28;45609;-59
2023/04/26 04:37:59;;;;;;;;;14.00;9.75;;;;;11.80;54.74;101092.31;5056372;28;45329;-59
2023/04/26 04:40:25;;;;;;;;;9.50;9.50;;;;;11.95;55.54;101107.75;5055663;28;47604;-59
2023/04/26 04:42:50;;;;;;;;;13.50;10.75;;;;;11.95;54.89;101114.09;5057190;28;45462;-59
2023/04/26 04:45:16;;;;;;;;;34.00;26.25;;;;;11.97;54.95;101102.88;5057043;28;45255;-59
2023/04/26 04:47:42;;;;;;;;;10.25;10.25;;;;;11.96;54.84;101115.81;5057503;28;45389;-59
2023/04/26 04:50:08;;;;;;;;;10.40;9.40;;;;;11.86;53.92;101110.72;5056812;28;45704;-59
2023/04/26 04:52:34;;;;;;;;;9.50;9.00;;;;;11.91;54.71;101112.84;5055784;28;45440;-58
2023/04/26 04:55:00;;;;;;;;;11.25;11.25;;;;;11.95;55.40;101103.09;5057356;28;45344;-60
2023/04/26 04:57:26;;;;;;;;;11.50;9.00;;;;;12.02;55.35;101112.19;5055665;28;45452;-60
2023/04/26 04:59:52;;;;;;;;;21.00;16.20;;;;;12.04;54.91;101103.75;5055791;28;45352;-59
2023/04/26 05:02:17;;;;;;;;;11.00;11.00;;;;;12.03;54.33;101111.19;5056989;28;45380;-59
2023/04/26 05:04:43;;;;;;;;;18.50;16.00;;;;;11.84;53.72;101104.56;5056740;28;45435;-60
2023/04/26 05:07:08;;;;;;;;;13.00;9.50;;;;;11.84;54.56;101107.31;5057124;28;45823;-60
2023/04/26 05:09:34;;;;;;;;;13.00;10.75;;;;;11.93;55.11;101088.72;5055189;28;47240;-60
2023/04/26 05:12:00;;;;;;;;;10.50;10.25;;;;;11.87;52.74;101082.16;5057067;28;45516;-60
2023/04/26 05:14:26;;;;;;;;;14.25;11.00;;;;;11.94;55.00;101101.41;5056828;28;45167;-60
2023/04/26 05:16:51;;;;;;;;;12.25;11.75;;;;;12.03;55.06;101102.91;5057102;28;45575;-60
2023/04/26 05:19:16;;;;;;;;;12.50;12.50;;;;;12.06;55.21;101110.72;5055150;28;47402;-60
2023/04/26 05:21:42;;;;;;;;;10.50;10.50;;;;;11.99;54.45;101107.13;5056267;28;45425;-60
2023/04/26 05:24:07;;;;;;;;;12.25;11.00;;;;;12.05;54.77;101109.06;5055344;28;45250;-60
2023/04/26 05:26:34;;;;;;;;;11.50;9.00;;;;;12.12;55.18;101116.44;5056677;28;45121;-60
2023/04/26 05:29:00;;;;;;;;;14.00;10.40;;;;;11.95;55.40;101083.00;5072227;27;45579;-59
2023/04/26 05:31:25;;;;;;;;;12.00;12.00;;;;;12.15;54.48;101121.50;5055174;28;45420;-62
2023/04/26 05:33:51;;;;;;;;;13.50;9.50;;;;;12.06;54.51;101121.75;5055556;28;45424;-60
2023/04/26 05:36:16;;;;;;;;;12.75;11.25;;;;;12.05;55.28;101102.69;4976224;28;45476;-61
2023/04/26 05:38:42;;;;;;;;;13.50;11.25;;;;;12.14;55.12;101120.69;4969017;28;46656;-61
2023/04/26 05:41:08;;;;;;;;;10.75;10.75;;;;;12.24;55.35;101128.50;4986131;28;45466;-61
2023/04/26 05:43:33;;;;;;;;;10.75;10.00;;;;;12.24;54.95;101123.00;4969758;28;45373;-60
2023/04/26 05:46:00;;;;;;;;;19.50;14.00;;;;;12.16;54.66;101124.06;4953702;28;45628;-60
2023/04/26 05:48:26;;;;;;;;;13.00;11.20;;;;;12.20;54.45;101127.22;4984583;27;48103;-60
2023/04/26 05:50:52;;;;;;;;;14.25;13.25;;;;;12.19;53.39;101131.91;4953247;28;45386;-60
2023/04/26 05:53:18;;;;;;;;;15.25;12.25;;;;;12.13;52.40;101123.66;4937560;28;45360;-60
2023/04/26 05:55:44;;;;;;;;;16.40;11.00;;;;;12.17;55.08;101117.50;4954732;28;45497;-61
2023/04/26 05:58:09;;;;;;;;;12.75;9.25;;;;;12.07;53.72;101087.66;4969446;28;47906;-59
2023/04/26 06:00:36;;;;;;;;;15.75;12.25;;;;;12.27;54.79;101119.81;4954366;28;45456;-59
2023/04/26 06:03:01;;;;;;;;;16.40;11.40;;;;;12.25;55.05;101123.84;4954434;28;45443;-61
2023/04/26 06:05:27;;;;;;;;;19.50;16.75;;;;;12.29;54.48;101125.97;4986266;27;45451;-61
2023/04/26 06:07:53;;;;;;;;;15.75;14.25;;;;;12.32;54.57;101130.16;4952823;28;45555;-60
2023/04/26 06:10:18;;;;;;;;;16.50;14.50;;;;;12.33;54.76;101131.88;4954750;28;45414;-59
2023/04/26 06:12:44;;;;;;;;;11.75;11.75;;;;;12.38;54.63;101134.81;4954301;28;45492;-60
2023/04/26 06:15:10;;;;;;;;;15.60;14.20;;;;;12.40;54.72;101131.84;4955023;28;45364;-61
2023/04/26 06:17:36;;;;;;;;;11.20;10.80;;;;;12.49;54.81;101136.06;4954729;28;45667;-59
2023/04/26 06:20:02;;;;;;;;;17.50;13.75;;;;;12.41;54.25;101136.31;4952245;28;45254;-59
2023/04/26 06:22:28;;;;;;;;;13.60;11.80;;;;;12.34;52.68;101142.66;4969179;28;45330;-59
2023/04/26 06:24:53;;;;;;;;;10.50;9.75;;;;;12.29;54.44;101144.38;4954257;28;45231;-59
2023/04/26 06:27:19;;;;;;;;;12.25;12.25;;;;;12.31;53.33;101140.34;4954012;28;45179;-61
2023/04/26 06:29:45;;;;;;;;;15.50;13.25;;;;;12.18;53.38;101127.44;4985002;28;45229;-61
2023/04/26 06:32:10;;;;;;;;;12.25;10.75;;;;;12.28;54.55;101121.50;4953865;28;45342;-60
2023/04/26 06:34:36;;;;;;;;;17.00;14.00;;;;;12.46;54.69;101128.25;4977259;28;45348;-60
2023/04/26 06:37:03;;;;;;;;;17.80;15.00;;;;;12.53;54.22;101123.56;5055259;28;45627;-60
2023/04/26 06:39:29;;;;;;;;;17.60;13.00;;;;;12.51;53.71;101111.94;5054467;28;45446;-60
2023/04/26 06:41:55;;;;;;;;;17.75;15.50;;;;;12.32;54.32;101084.25;5071234;28;45428;-60
2023/04/26 06:44:23;;;;;;;;;15.00;12.75;;;;;12.64;54.23;101124.81;5088432;27;45621;-60
2023/04/26 06:46:52;;;;;;;;;15.60;11.00;;;;;12.67;53.94;101126.28;5054400;28;46068;-61
2023/04/26 06:49:18;;;;;;;;;14.40;13.40;;;;;12.68;54.40;101114.19;5054571;28;45423;-61
2023/04/26 06:51:44;;;;;;;;;11.40;11.40;;;;;12.79;54.21;101123.69;5037560;28;45322;-61
2023/04/26 06:54:11;;;;;;;;;15.75;15.25;;;;;12.84;54.07;101127.50;5054484;28;45543;-60
2023/04/26 06:56:37;;;;;;;;;15.60;13.20;;;;;12.88;54.13;101122.41;5055580;28;46706;-58
2023/04/26 06:59:03;;;;;;;;;18.75;16.25;;;;;12.95;54.23;101138.88;4938919;28;45739;-60
2023/04/26 07:01:32;;;;;;;;;20.80;15.80;;;;;12.98;53.86;101132.97;4936627;28;45393;-58
2023/04/26 07:04:06;;;;;;;;;15.00;12.00;;;;;12.93;52.97;101132.75;4952720;28;45548;-60
2023/04/26 07:06:32;;;;;;;;;17.60;16.00;;;;;12.92;52.89;101131.06;4953880;28;45735;-59
2023/04/26 07:08:59;;;;;;;;;15.00;12.50;;;;;12.96;53.68;101135.09;4953993;28;45433;-60
2023/04/26 07:11:24;;;;;;;;;14.20;12.00;;;;;13.00;53.61;101130.81;4935972;28;45406;-59
2023/04/26 07:13:50;;;;;;;;;17.25;15.25;;;;;13.11;54.10;101132.03;4953016;28;45455;-59
2023/04/26 07:16:16;;;;;;;;;13.75;13.75;;;;;13.12;52.33;101139.25;4952189;28;46478;-61
2023/04/26 07:18:42;;;;;;;;;17.25;15.00;;;;;13.17;53.60;101139.44;4953366;28;45303;-60
2023/04/26 07:21:07;;;;;;;;;16.25;15.75;;;;;13.25;53.34;101135.59;4951969;28;45358;-59
2023/04/26 07:23:33;;;;;;;;;16.75;14.75;;;;;13.30;53.53;101141.28;4952641;28;45195;-61
2023/04/26 07:26:00;;;;;;;;;18.75;16.25;;;;;13.38;52.84;101135.50;4952116;28;45733;-60
2023/04/26 07:28:26;;;;;;;;;14.80;13.80;;;;;13.31;53.17;101140.22;4935982;28;45428;-60
2023/04/26 07:30:52;;;;;;;;;22.00;18.40;;;;;13.35;53.54;101135.09;4953779;28;45395;-60
2023/04/26 07:33:18;;;;;;;;;15.75;15.25;;;;;13.44;53.56;101135.69;4953264;28;45506;-59
2023/04/26 07:35:44;;;;;;;;;23.25;20.25;;;;;13.45;53.39;101116.16;4997484;28;46839;-60
2023/04/26 07:38:13;;;;;;;;;13.25;13.25;;;;;13.46;52.91;101122.56;5055247;28;45517;-60
2023/04/26 07:40:42;;;;;;;;;17.40;16.80;;;;;13.53;53.38;101124.22;5053617;28;45388;-59
2023/04/26 07:43:08;;;;;;;;;13.00;12.00;;;;;13.58;52.28;101125.44;5053722;28;45344;-58
2023/04/26 07:45:34;;;;;;;;;14.20;13.20;;;;;13.59;52.84;101125.22;5086849;27;45814;-58
2023/04/26 07:48:00;;;;;;;;;15.75;12.50;;;;;13.68;53.12;101110.09;5087428;27;45320;-59
2023/04/26 07:50:25;;;;;;;;;13.75;12.50;;;;;13.85;52.96;101111.44;5053492;28;45361;-60
2023/04/26 07:52:51;;;;;;;;;13.50;10.50;;;;;13.99;52.35;101106.66;5070626;28;45431;-60
2023/04/26 07:55:16;;;;;;;;;11.00;11.00;;;;;14.02;52.32;101103.44;5053668;28;45351;-59
2023/04/26 07:57:42;;;;;;;;;15.75;13.50;;;;;14.12;52.12;101109.31;5053193;28;45365;-58
2023/04/26 08:00:09;;;;;;;;;17.75;16.75;;;;;14.12;51.39;101100.16;5067561;27;46048;-59
2023/04/26 08:02:35;;;;;;;;;12.80;11.00;;;;;14.17;51.47;101119.66;5052636;28;45320;-60
2023/04/26 08:05:01;;;;;;;;;16.25;13.75;;;;;14.26;52.61;101118.31;5084293;27;45635;-61
2023/04/26 08:07:26;;;;;;;;;15.25;15.25;;;;;14.26;50.44;101114.69;5053111;28;45437;-61
2023/04/26 08:09:55;;;;;;;;;13.25;13.25;;;;;14.38;51.04;101121.16;5052565;28;45478;-60
2023/04/26 08:12:21;;;;;;;;;14.00;13.00;;;;;14.43;52.19;101126.00;5087303;27;45620;-60
2023/04/26 08:14:46;;;;;;;;;14.50;13.50;;;;;14.46;51.20;101120.03;5053061;28;46998;-61
2023/04/26 08:17:12;;;;;;;;;12.00;12.00;;;;;14.53;50.30;101114.41;5036545;28;45494;-60
2023/04/26 08:19:37;;;;;;;;;10.25;6.75;;;;;14.52;49.98;101113.59;5069761;28;45359;-58
2023/04/26 08:22:04;;;;;;;;;12.25;12.25;;;;;14.56;49.56;101113.97;5054398;28;45446;-57
2023/04/26 08:24:30;;;;;;;;;16.60;12.20;;;;;14.57;50.61;101112.91;5018832;28;49428;-60
2023/04/26 08:26:57;;;;;;;;;13.00;12.50;;;;;14.63;50.48;101107.28;4949925;28;45719;-60
2023/04/26 08:29:23;;;;;;;;;12.80;12.80;;;;;14.57;49.92;101077.81;4932473;28;47575;-58
2023/04/26 08:31:49;;;;;;;;;13.00;12.50;;;;;14.79;50.75;101102.25;4991100;28;45457;-60
2023/04/26 08:34:14;;;;;;;;;15.00;12.25;;;;;14.84;50.26;101098.78;5085522;27;46284;-61
2023/04/26 08:36:42;;;;;;;;;15.25;11.75;;;;;14.92;50.29;101098.47;4983936;28;45441;-60
2023/04/26 08:39:08;;;;;;;;;12.00;12.00;;;;;15.00;50.33;101094.56;4968765;28;45622;-61
2023/04/26 08:41:42;;;;;;;;;13.75;11.75;;;;;15.12;50.92;101098.22;4969810;28;45359;-60
2023/04/26 08:44:08;;;;;;;;;13.80;11.60;;;;;15.18;49.41;101088.97;4970306;28;46459;-61
2023/04/26 08:47:05;;;;;;;;;12.25;11.25;;;;;15.27;50.13;101102.47;4985342;28;45761;-59
2023/04/26 08:49:41;;;;;;;;;10.60;10.60;;;;;15.34;49.44;101099.59;4961429;28;45679;-60
2023/04/26 08:52:08;;;;;;;;;12.00;12.00;;;;;15.42;45.87;101099.28;4965831;28;45619;-60
2023/04/26 08:54:34;;;;;;;;;10.80;9.00;;;;;15.50;48.71;101095.31;4948443;28;48024;-60
2023/04/26 08:57:00;;;;;;;;;13.40;9.80;;;;;15.54;49.13;101091.84;4948692;28;45543;-60
2023/04/26 08:59:26;;;;;;;;;12.00;11.00;;;;;15.53;49.27;101098.44;4949642;28;45334;-59
2023/04/26 09:01:51;;;;;;;;;11.00;10.00;;;;;15.43;45.56;101100.97;4968927;28;45356;-60
2023/04/26 09:04:17;;;;;;;;;14.75;10.50;;;;;15.54;48.97;101099.31;5001315;28;45440;-59
2023/04/26 09:06:43;;;;;;;;;11.50;10.25;;;;;15.60;49.12;101101.13;4985395;28;45346;-60
2023/04/26 09:09:08;;;;;;;;;11.00;9.40;;;;;15.64;48.08;101102.31;5001850;28;45372;-60
2023/04/26 09:11:58;;;;;;;;;11.00;8.50;;;;;15.78;48.84;101099.34;4968216;28;45506;-59
2023/04/26 09:14:26;;;;;;;;;11.80;10.80;;;;;15.72;46.91;101096.47;4962934;28;45617;-60
2023/04/26 09:16:53;;;;;;;;;10.80;8.00;;;;;15.81;48.74;101094.16;4946190;28;45878;-59
2023/04/26 09:19:39;;;;;;;;;14.60;12.60;;;;;15.93;47.53;101087.84;4935689;28;45434;-60
2023/04/26 09:22:08;;;;;;;;;11.80;8.60;;;;;16.04;49.28;101086.16;4919925;28;46056;-61
2023/04/26 09:24:51;;;;;;;;;7.60;7.20;;;;;16.03;49.41;101067.88;5008023;28;46478;-60
2023/04/26 09:27:17;;;;;;;;;10.80;9.60;;;;;16.12;48.93;101089.41;4948935;28;45451;-60
2023/04/26 09:30:09;;;;;;;;;12.20;12.20;;;;;15.84;42.29;101090.94;4934802;28;45448;-59
2023/04/26 09:32:53;;;;;;;;;13.60;10.80;;;;;15.79;48.31;101082.50;4934990;28;45817;-60
2023/04/26 09:35:28;;;;;;;;;10.20;10.20;;;;;15.86;49.06;101071.34;4969360;28;47692;-59
2023/04/26 09:38:12;;;;;;;;;18.60;12.20;;;;;16.00;48.87;101077.50;4957304;28;45368;-59
2023/04/26 09:40:45;;;;;;;;;8.80;8.80;;;;;16.25;44.75;101085.56;4954173;28;45384;-58
2023/04/26 09:43:12;;;;;;;;;10.40;8.20;;;;;16.33;46.52;101089.88;4953037;28;45579;-60
2023/04/26 09:45:55;;;;;;;;;9.60;9.60;;;;;16.34;46.28;101093.50;4937203;28;45758;-57
2023/04/26 09:48:29;;;;;;;;;9.80;9.80;;;;;16.40;44.55;101079.50;4946229;28;45448;-58
2023/04/26 09:51:18;;;;;;;;;7.80;7.60;;;;;16.36;47.67;101053.41;4949148;28;45425;-57
2023/04/26 09:53:48;;;;;;;;;9.00;9.00;;;;;16.70;46.09;101074.06;4963483;28;45553;-57
2023/04/26 09:56:18;;;;;;;;;11.40;10.20;;;;;16.74;47.04;101055.81;4966052;28;46456;-62
2023/04/26 09:58:50;;;;;;;;;11.60;9.00;;;;;16.75;45.88;101052.81;4966449;28;45448;-61
2023/04/26 10:01:17;;;;;;;;;9.40;9.40;;;;;16.74;44.03;101045.59;4954236;28;45845;-61
2023/04/26 10:03:43;;;;;;;;;8.80;7.80;;;;;16.91;45.81;101062.28;4951285;28;45694;-59
2023/04/26 10:06:09;;;;;;;;;6.75;6.75;;;;;16.94;46.22;101055.41;4953445;28;46199;-61
2023/04/26 10:08:35;;;;;;;;;9.75;7.00;;;;;16.84;45.99;101050.50;4951732;28;45355;-59
2023/04/26 10:11:03;;;;;;;;;6.60;6.60;;;;;16.85;45.44;101052.19;4952197;28;45326;-61
2023/04/26 10:13:31;;;;;;;;;12.60;6.00;;;;;16.93;45.41;101060.09;4947757;28;45506;-60
2023/04/26 10:15:57;;;;;;;;;9.20;7.00;;;;;17.05;46.00;101054.56;4948250;28;45441;-60
2023/04/26 10:18:22;;;;;;;;;9.75;9.75;;;;;17.05;45.98;101045.38;4931748;28;45713;-59
2023/04/26 10:20:50;;;;;;;;;7.00;7.00;;;;;17.16;44.19;101058.34;4933245;28;45389;-60
2023/04/26 10:23:24;;;;;;;;;8.20;8.20;;;;;17.16;46.08;101047.25;4932779;28;45891;-60
2023/04/26 10:25:50;;;;;;;;;14.80;10.40;;;;;17.10;41.76;101051.03;4959983;28;46400;-61
2023/04/26 10:28:16;;;;;;;;;8.00;8.00;;;;;17.16;45.78;101044.50;4965910;28;45410;-60
2023/04/26 10:30:58;;;;;;;;;8.60;7.60;;;;;17.34;45.92;101039.78;4969590;28;45619;-54
2023/04/26 10:33:24;;;;;;;;;10.00;9.00;;;;;17.45;44.69;101038.88;4969085;28;45302;-61
2023/04/26 10:36:07;;;;;;;;;9.00;6.80;;;;;17.43;45.92;101031.91;4964278;28;46230;-60
2023/04/26 10:38:34;;;;;;;;;2.60;2.20;;;;;17.52;42.23;101035.97;5005288;28;45396;-60
2023/04/26 10:41:31;;;;;;;;;7.60;7.60;;;;;17.42;44.94;101024.69;4950812;28;45398;-60
2023/04/26 10:43:58;;;;;;;;;7.40;7.40;;;;;17.26;43.55;101031.88;4952335;28;45517;-60
2023/04/26 10:46:39;;;;;;;;;6.20;4.20;;;;;17.34;45.55;101032.31;4971323;27;46717;-60
2023/04/26 10:49:15;;;;;;;;;7.00;7.00;;;;;17.39;45.49;101033.50;4982743;28;45628;-61
2023/04/26 10:52:12;;;;;;;;;7.00;7.00;;;;;17.25;41.09;101042.16;4946889;28;45374;-57
2023/04/26 10:54:45;;;;;;;;;9.80;7.00;;;;;17.05;42.26;101037.06;4945941;28;45750;-58
2023/04/26 10:57:11;;;;;;;;;8.20;8.20;;;;;17.16;42.22;101038.94;4946483;28;46342;-58
2023/04/26 10:59:37;;;;;;;;;8.75;7.00;;;;;17.26;44.42;101032.75;4945886;28;45948;-58
2023/04/26 11:02:03;;;;;;;;;6.00;6.00;;;;;17.40;44.78;101035.19;4934703;28;45491;-59
2023/04/26 11:04:53;;;;;;;;;7.00;7.00;;;;;17.37;46.31;101028.22;4932021;28;45540;-59
2023/04/26 11:07:37;;;;;;;;;9.00;6.40;;;;;17.46;46.04;101023.91;4946567;28;48177;-60
2023/04/26 11:10:07;;;;;;;;;9.20;9.20;;;;;17.47;45.24;101022.81;4946631;28;45524;-61
2023/04/26 11:12:32;;;;;;;;;6.40;5.40;;;;;17.50;45.30;101020.66;4962909;28;45463;-59
2023/04/26 11:14:59;;;;;;;;;9.25;8.25;;;;;17.53;45.53;101025.69;4963585;28;46106;-60